Time;durP1;ratioP1;P1;durP2;ratioP2;P2;SDS_P1;SDS_P2;PMS_P1;PMS_P2;Temp;Humidity;BMP_temperature;BMP_pressure;BME280_temperature;BME280_humidity;BME280_pressure;Samples;Min_cycle;Max_cycle;Signal;HPM_P1;HPM_P2
2022/08/15 00:01:25;;;;;;;14.57;12.20;;;20.50;1.00;;;;;;5026062;28;20520;-86
2022/08/15 00:03:57;;;;;;;13.55;11.88;;;20.40;1.00;;;;;;5000963;28;20062;-86
2022/08/15 00:06:30;;;;;;;13.82;11.95;;;20.40;1.00;;;;;;5009033;28;20114;-86
2022/08/15 00:08:58;;;;;;;12.07;10.95;;;20.50;1.00;;;;;;5029153;28;20569;-85
2022/08/15 00:11:35;;;;;;;12.57;11.27;;;20.50;99.90;;;;;;5033763;28;20125;-85
2022/08/15 00:14:09;;;;;;;14.48;12.27;;;20.40;99.90;;;;;;4991667;28;20048;-84
2022/08/15 00:16:38;;;;;;;15.30;13.70;;;20.40;1.00;;;;;;5011640;28;20046;-85
2022/08/15 00:19:08;;;;;;;13.50;12.10;;;20.50;1.00;;;;;;5038999;28;20109;-85
2022/08/15 00:21:38;;;;;;;14.65;12.00;;;20.50;1.00;;;;;;5003046;28;20108;-86
2022/08/15 00:24:04;;;;;;;13.55;12.13;;;20.40;99.90;;;;;;5014581;28;20059;-85
2022/08/15 00:26:31;;;;;;;14.32;12.60;;;20.40;99.90;;;;;;5030555;28;20041;-85
2022/08/15 00:28:58;;;;;;;13.55;10.95;;;20.40;99.90;;;;;;4994224;28;20072;-86
2022/08/15 00:31:23;;;;;;;14.20;12.13;;;20.20;99.90;;;;;;4985442;28;20048;-85
2022/08/15 00:33:50;;;;;;;14.02;12.68;;;20.20;30.80;;;;;;5022580;28;20369;-86
2022/08/15 00:36:15;;;;;;;15.48;12.20;;;20.20;99.90;;;;;;5032796;28;20045;-85
2022/08/15 00:38:41;;;;;;;15.02;12.05;;;20.20;90.50;;;;;;4991247;28;20347;-86
2022/08/15 00:43:57;;;;;;;13.45;11.45;;;20.20;99.90;;;;;;5008660;28;20190;-85
2022/08/15 00:46:25;;;;;;;16.50;12.63;;;20.20;6.50;;;;;;5005853;28;20041;-85
2022/08/15 00:48:52;;;;;;;14.32;11.52;;;20.20;1.00;;;;;;5032630;28;20041;-86
2022/08/15 00:51:39;;;;;;;13.85;12.32;;;20.20;1.00;;;;;;5039319;28;20050;-86
2022/08/15 00:54:15;;;;;;;12.48;11.20;;;20.20;2.50;;;;;;5019521;28;20123;-85
2022/08/15 00:56:53;;;;;;;14.00;12.45;;;20.20;1.00;;;;;;5008130;28;20042;-86
2022/08/15 00:59:23;;;;;;;17.00;13.07;;;20.10;1.00;;;;;;5009732;28;20121;-84
2022/08/15 01:01:50;;;;;;;13.63;12.23;;;20.10;99.90;;;;;;4999455;28;20037;-85
2022/08/15 01:04:17;;;;;;;18.23;13.05;;;20.10;99.90;;;;;;4993054;28;20532;-85
2022/08/15 01:06:45;;;;;;;13.80;12.43;;;20.20;99.90;;;;;;5045913;28;20453;-86
2022/08/15 01:09:13;;;;;;;12.77;11.57;;;20.20;99.90;;;;;;5015750;28;20489;-85
2022/08/15 01:11:50;;;;;;;14.13;12.07;;;20.20;99.90;;;;;;5015130;28;20045;-86
2022/08/15 01:14:17;;;;;;;13.23;11.88;;;20.10;99.90;;;;;;5023040;28;20046;-86
2022/08/15 01:16:43;;;;;;;14.65;12.65;;;20.10;1.00;;;;;;5020591;28;20041;-85
2022/08/15 01:19:18;;;;;;;13.23;11.82;;;20.00;96.60;;;;;;5009380;28;20072;-85
2022/08/15 01:21:49;;;;;;;13.00;11.80;;;19.90;1.00;;;;;;5009091;28;20041;-86
2022/08/15 01:24:37;;;;;;;15.70;12.43;;;20.00;1.00;;;;;;5024423;28;20104;-86
2022/08/15 01:27:04;;;;;;;16.60;12.50;;;20.00;1.00;;;;;;5012198;28;20158;-85
2022/08/15 01:29:31;;;;;;;14.18;12.00;;;20.00;1.00;;;;;;5008049;28;20412;-84
2022/08/15 01:31:57;;;;;;;13.60;12.30;;;20.00;1.00;;;;;;4993067;28;20043;-86
2022/08/15 01:34:22;;;;;;;14.30;12.60;;;19.90;1.00;;;;;;4994512;28;20038;-86
2022/08/15 01:36:49;;;;;;;15.05;13.55;;;19.90;95.90;;;;;;4990419;28;20310;-86
2022/08/15 01:39:40;;;;;;;13.55;12.15;;;20.00;35.20;;;;;;4991912;28;20096;-85
2022/08/15 01:42:11;;;;;;;19.70;13.60;;;20.00;1.00;;;;;;5006615;28;20505;-86
2022/08/15 01:44:45;;;;;;;13.85;12.02;;;20.00;1.00;;;;;;4990264;28;20065;-86
2022/08/15 01:47:20;;;;;;;13.83;12.40;;;20.00;1.00;;;;;;5019432;28;20124;-86
2022/08/15 01:49:51;;;;;;;;;;;20.10;1.00;;;;;;5019655;28;20065;-86
2022/08/15 01:52:19;;;;;;;15.05;13.18;;;20.10;4.50;;;;;;5028615;28;20793;-86
2022/08/15 01:54:45;;;;;;;15.23;12.60;;;20.20;1.00;;;;;;5028069;28;20046;-86
2022/08/15 01:57:12;;;;;;;14.48;13.00;;;20.20;1.00;;;;;;5024328;28;20112;-85
2022/08/15 01:59:38;;;;;;;13.85;12.45;;;20.20;1.00;;;;;;5003740;28;20097;-85
2022/08/15 02:02:07;;;;;;;15.00;12.25;;;20.30;99.90;;;;;;4988126;28;20136;-86
2022/08/15 02:04:37;;;;;;;14.50;12.70;;;20.20;1.00;;;;;;5006949;28;20464;-86
2022/08/15 02:07:12;;;;;;;14.20;12.57;;;20.30;1.00;;;;;;5008003;28;20453;-85
2022/08/15 02:09:40;;;;;;;14.65;13.13;;;20.30;1.00;;;;;;4990055;28;20277;-86
2022/08/15 02:12:08;;;;;;;14.93;13.48;;;20.30;1.00;;;;;;5013859;28;20044;-85
2022/08/15 02:14:35;;;;;;;14.98;13.48;;;20.40;1.00;;;;;;5042248;28;20038;-85
2022/08/15 02:17:03;;;;;;;14.65;13.20;;;20.40;99.90;;;;;;4984611;28;20048;-85
2022/08/15 02:19:29;;;;;;;14.52;13.02;;;20.40;99.90;;;;;;5009681;28;20414;-85
2022/08/15 02:21:55;;;;;;;14.30;12.80;;;20.40;99.90;;;;;;5005111;28;20128;-85
2022/08/15 02:24:23;;;;;;;14.85;13.23;;;20.40;99.90;;;;;;4990102;28;20136;-86
2022/08/15 02:26:52;;;;;;;14.25;12.23;;;20.40;99.90;;;;;;5019592;28;20064;-86
2022/08/15 02:29:21;;;;;;;14.18;12.02;;;20.40;99.90;;;;;;5025415;28;20302;-85
2022/08/15 02:31:47;;;;;;;15.75;12.95;;;20.40;99.90;;;;;;5018597;28;20124;-86
2022/08/15 02:34:13;;;;;;;17.05;13.57;;;20.40;99.90;;;;;;5012644;28;20124;-85
2022/08/15 02:36:40;;;;;;;15.55;13.95;;;20.40;99.90;;;;;;5035334;28;20046;-85
2022/08/15 02:39:09;;;;;;;15.82;13.35;;;20.40;1.00;;;;;;5026141;28;20365;-85
2022/08/15 02:41:53;;;;;;;15.20;13.68;;;20.50;1.00;;;;;;4991478;28;20038;-85
2022/08/15 02:44:21;;;;;;;18.02;14.60;;;20.50;1.00;;;;;;5012274;28;20044;-85
2022/08/15 02:46:51;;;;;;;16.27;14.20;;;20.50;1.00;;;;;;5013069;28;20037;-85
2022/08/15 02:49:18;;;;;;;15.75;13.65;;;20.50;1.00;;;;;;5018714;28;20112;-86
2022/08/15 02:51:46;;;;;;;15.82;13.90;;;20.50;99.90;;;;;;5032401;28;20128;-85
2022/08/15 02:54:14;;;;;;;14.13;12.77;;;20.60;99.90;;;;;;4981643;28;20583;-85
2022/08/15 02:56:39;;;;;;;15.05;12.77;;;20.60;99.90;;;;;;4989536;28;20108;-85
2022/08/15 02:59:07;;;;;;;13.88;12.48;;;20.50;99.90;;;;;;5021927;28;20042;-85
2022/08/15 03:01:40;;;;;;;14.07;12.68;;;20.50;99.90;;;;;;5003721;28;20112;-85
2022/08/15 03:04:09;;;;;;;15.05;13.50;;;20.50;99.90;;;;;;5032720;28;20553;-85
2022/08/15 03:06:35;;;;;;;15.20;13.80;;;20.50;99.90;;;;;;5036605;28;20041;-85
2022/08/15 03:09:06;;;;;;;15.43;13.05;;;20.60;99.90;;;;;;5026479;28;20059;-85
2022/08/15 03:11:32;;;;;;;12.95;11.65;;;20.50;99.90;;;;;;5003038;28;20041;-85
2022/08/15 03:13:58;;;;;;;14.13;12.63;;;20.50;99.90;;;;;;4987368;28;20041;-86
2022/08/15 03:16:25;;;;;;;15.02;13.45;;;20.40;99.90;;;;;;4999871;28;20379;-86
2022/08/15 03:18:50;;;;;;;14.35;12.88;;;20.50;99.90;;;;;;5006954;28;20073;-85
2022/08/15 03:21:19;;;;;;;15.50;13.98;;;20.50;99.90;;;;;;5024717;28;20054;-85
2022/08/15 03:23:49;;;;;;;15.07;13.65;;;20.40;99.90;;;;;;5005198;28;20033;-85
2022/08/15 03:26:25;;;;;;;14.27;12.77;;;20.40;99.90;;;;;;4987978;28;20116;-85
2022/08/15 03:28:51;;;;;;;16.75;14.05;;;20.20;99.90;;;;;;5012414;28;20025;-85
2022/08/15 03:31:17;;;;;;;14.98;13.52;;;20.10;99.90;;;;;;5037861;28;20096;-85
2022/08/15 03:33:46;;;;;;;16.38;14.68;;;20.10;99.90;;;;;;5031931;28;20184;-86
2022/08/15 03:36:17;;;;;;;15.32;13.82;;;20.10;1.00;;;;;;5007195;28;20064;-86
2022/08/15 03:38:45;;;;;;;15.38;13.88;;;20.00;99.90;;;;;;5002141;28;20342;-85
2022/08/15 03:41:13;;;;;;;16.67;15.07;;;19.90;99.90;;;;;;5014230;28;20076;-85
2022/08/15 03:43:39;;;;;;;16.90;14.00;;;19.80;1.00;;;;;;5018826;28;20266;-86
2022/08/15 03:46:18;;;;;;;16.27;14.57;;;19.70;1.00;;;;;;5035575;28;20132;-85
2022/08/15 03:48:49;;;;;;;15.68;14.18;;;19.70;1.00;;;;;;5014149;28;20405;-85
2022/08/15 03:51:18;;;;;;;16.15;14.50;;;19.70;1.00;;;;;;5008287;28;20429;-86
2022/08/15 03:53:48;;;;;;;16.17;14.57;;;19.70;1.00;;;;;;4995184;28;20177;-86
2022/08/15 03:56:24;;;;;;;17.38;14.23;;;19.70;1.00;;;;;;4991476;28;20042;-85
2022/08/15 03:58:51;;;;;;;15.32;13.82;;;19.70;1.00;;;;;;5047022;28;20505;-86
2022/08/15 04:01:27;;;;;;;16.00;14.40;;;19.60;1.00;;;;;;5005868;28;20076;-85
2022/08/15 04:03:53;;;;;;;16.90;14.95;;;19.50;1.00;;;;;;5010041;28;20390;-84
2022/08/15 04:06:22;;;;;;;16.17;14.60;;;19.50;1.00;;;;;;5010568;28;20060;-85
2022/08/15 04:08:50;;;;;;;17.30;15.60;;;19.50;1.00;;;;;;5007197;28;20050;-85
2022/08/15 04:11:17;;;;;;;23.70;15.70;;;19.50;1.00;;;;;;5008000;28;20433;-85
2022/08/15 04:13:45;;;;;;;18.38;16.48;;;19.50;1.00;;;;;;5032470;28;20040;-85
2022/08/15 04:16:12;;;;;;;17.70;15.93;;;19.50;1.00;;;;;;4988974;28;20483;-86
2022/08/15 04:18:38;;;;;;;17.45;15.75;;;19.50;1.00;;;;;;5004333;28;20034;-86
2022/08/15 04:21:07;;;;;;;15.48;13.85;;;19.50;1.00;;;;;;5003610;28;20030;-86
2022/08/15 04:23:33;;;;;;;17.42;14.55;;;19.40;1.00;;;;;;5007264;28;20038;-85
2022/08/15 04:25:59;;;;;;;15.60;13.98;;;19.40;1.00;;;;;;4988444;28;20124;-85
2022/08/15 04:28:29;;;;;;;15.50;13.93;;;19.30;1.00;;;;;;5006331;28;20596;-86
2022/08/15 04:30:55;;;;;;;15.77;14.38;;;19.30;1.00;;;;;;5026643;28;20124;-86
2022/08/15 04:33:27;;;;;;;14.80;13.27;;;19.30;1.00;;;;;;5032262;28;20137;-85
2022/08/15 04:36:04;;;;;;;17.25;14.32;;;19.30;99.90;;;;;;5021321;28;20042;-85
2022/08/15 04:38:32;;;;;;;15.43;13.82;;;19.30;1.00;;;;;;5024988;28;20061;-85
2022/08/15 04:40:58;;;;;;;17.00;14.48;;;19.40;1.00;;;;;;4990172;28;20038;-86
2022/08/15 04:43:24;;;;;;;15.18;13.57;;;19.30;1.00;;;;;;5028802;28;20434;-85
2022/08/15 04:45:51;;;;;;;15.70;14.18;;;19.30;99.90;;;;;;4988429;28;20056;-86
2022/08/15 04:48:17;;;;;;;15.27;13.77;;;19.30;99.90;;;;;;5014508;28;20522;-86
2022/08/15 04:50:45;;;;;;;16.52;14.88;;;19.30;99.90;;;;;;5008359;28;20540;-86
2022/08/15 04:53:13;;;;;;;17.63;15.13;;;19.40;1.00;;;;;;5031520;28;20229;-86
2022/08/15 04:55:42;;;;;;;16.73;15.02;;;19.40;1.00;;;;;;5027857;28;20037;-85
2022/08/15 04:58:09;;;;;;;18.08;16.15;;;19.50;76.00;;;;;;4991970;28;20077;-85
2022/08/15 05:00:40;;;;;;;18.25;16.35;;;19.50;96.10;;;;;;5037982;28;20113;-84
2022/08/15 05:03:16;;;;;;;19.77;17.73;;;19.60;99.90;;;;;;4992715;28;20181;-85
2022/08/15 05:05:52;;;;;;;19.75;17.75;;;19.50;99.90;;;;;;5005649;28;20608;-85
2022/08/15 05:08:18;;;;;;;19.02;17.02;;;19.60;64.40;;;;;;4993801;28;20041;-84
2022/08/15 05:10:48;;;;;;;19.23;17.20;;;19.70;34.80;;;;;;4993807;28;20107;-85
2022/08/15 05:13:17;;;;;;;19.10;16.92;;;19.70;1.00;;;;;;5029055;28;20602;-85
2022/08/15 05:15:45;;;;;;;18.27;16.35;;;19.70;39.70;;;;;;5034318;28;20096;-83
2022/08/15 05:18:11;;;;;;;17.95;16.05;;;19.70;1.00;;;;;;5004587;28;20037;-85
2022/08/15 05:20:39;;;;;;;19.77;17.67;;;19.80;1.00;;;;;;5016385;28;20084;-84
2022/08/15 05:23:11;;;;;;;19.52;17.20;;;19.80;1.00;;;;;;5014533;28;20033;-85
2022/08/15 05:25:40;;;;;;;18.77;16.85;;;19.90;99.90;;;;;;4987284;28;20505;-84
2022/08/15 05:28:06;;;;;;;20.25;18.30;;;20.00;99.90;;;;;;5033218;28;20405;-85
2022/08/15 05:30:33;;;;;;;18.50;16.38;;;20.00;99.90;;;;;;5025055;28;20048;-85
2022/08/15 05:33:15;;;;;;;21.55;17.05;;;20.10;99.90;;;;;;5007349;28;20046;-85
2022/08/15 05:35:49;;;;;;;19.33;17.35;;;20.20;99.90;;;;;;5012483;28;20451;-85
2022/08/15 05:38:21;;;;;;;20.40;18.27;;;20.30;99.90;;;;;;5004181;28;20382;-85
2022/08/15 05:41:16;;;;;;;20.02;17.95;;;20.40;99.90;;;;;;5018826;28;20275;-85
2022/08/15 05:44:03;;;;;;;19.10;17.15;;;20.40;1.00;;;;;;5017839;28;20557;-85
2022/08/15 05:46:50;;;;;;;19.25;17.40;;;20.40;1.00;;;;;;5027900;28;20125;-85
2022/08/15 05:49:39;;;;;;;21.38;19.17;;;20.50;91.60;;;;;;5005351;28;20069;-85
2022/08/15 05:52:38;;;;;;;21.45;18.42;;;20.60;1.00;;;;;;4993930;28;20479;-86
2022/08/15 05:55:36;;;;;;;21.85;19.27;;;20.70;1.00;;;;;;4987921;28;20073;-86
2022/08/15 05:58:24;;;;;;;21.92;19.83;;;20.80;1.00;;;;;;5025735;28;20042;-85
2022/08/15 06:01:32;;;;;;;20.58;18.42;;;20.90;1.00;;;;;;5016176;28;20084;-85
2022/08/15 06:04:33;;;;;;;22.08;19.70;;;21.10;1.00;;;;;;5036060;28;20389;-85
2022/08/15 06:07:06;;;;;;;21.25;19.05;;;21.20;1.00;;;;;;5039828;28;20149;-85
2022/08/15 06:09:47;;;;;;;20.70;18.60;;;21.30;1.00;;;;;;5013600;28;20524;-86
2022/08/15 06:12:33;;;;;;;21.15;19.05;;;21.40;1.00;;;;;;5004309;28;20504;-86
2022/08/15 06:15:22;;;;;;;21.83;19.60;;;21.50;99.90;;;;;;4983321;28;20058;-85
2022/08/15 06:17:55;;;;;;;19.00;17.00;;;21.60;99.90;;;;;;5030474;28;20445;-86
2022/08/15 06:20:27;;;;;;;23.10;17.70;;;21.80;99.90;;;;;;5035901;28;20116;-86
2022/08/15 06:23:19;;;;;;;19.35;17.40;;;21.90;99.90;;;;;;5006783;28;20128;-86
2022/08/15 06:25:50;;;;;;;19.95;17.95;;;22.00;99.90;;;;;;4991604;28;20048;-85
2022/08/15 06:28:34;;;;;;;23.48;18.60;;;22.00;22.60;;;;;;5018484;28;20437;-85
2022/08/15 06:31:13;;;;;;;19.73;17.73;;;22.20;1.00;;;;;;5007109;28;20056;-86
2022/08/15 06:33:43;;;;;;;19.15;16.98;;;22.30;1.00;;;;;;5032475;28;20456;-86
2022/08/15 06:36:19;;;;;;;22.25;16.95;;;22.40;1.00;;;;;;5006008;28;20049;-86
2022/08/15 06:39:01;;;;;;;25.42;17.30;;;22.50;1.00;;;;;;4988469;28;20041;-86
2022/08/15 06:41:26;;;;;;;17.83;16.00;;;22.50;1.00;;;;;;5030257;28;20034;-85
2022/08/15 06:43:53;;;;;;;19.60;16.58;;;22.60;1.00;;;;;;4994469;28;20029;-85
2022/08/15 06:46:21;;;;;;;18.73;16.83;;;22.60;99.90;;;;;;4996738;28;20087;-85
2022/08/15 06:48:48;;;;;;;17.80;15.65;;;22.60;1.00;;;;;;5007650;28;20129;-86
2022/08/15 06:51:15;;;;;;;20.40;15.90;;;22.60;1.00;;;;;;5007396;28;20102;-85
2022/08/15 06:53:54;;;;;;;18.70;16.00;;;22.70;1.00;;;;;;4995330;28;20712;-85
2022/08/15 06:56:38;;;;;;;19.17;15.75;;;22.80;99.90;;;;;;5007248;28;20078;-85
2022/08/15 06:59:17;;;;;;;20.15;15.82;;;22.90;99.90;;;;;;5028542;28;20045;-85
2022/08/15 07:02:09;;;;;;;16.35;14.65;;;23.10;99.90;;;;;;5003928;28;20041;-85
2022/08/15 07:04:59;;;;;;;17.98;14.63;;;23.20;99.90;;;;;;5019577;28;20042;-85
2022/08/15 07:07:40;;;;;;;15.65;14.15;;;23.40;99.90;;;;;;4990933;28;20121;-85
2022/08/15 07:10:13;;;;;;;14.80;13.40;;;23.50;99.90;;;;;;5007813;28;20040;-85
2022/08/15 07:12:57;;;;;;;17.05;13.27;;;23.60;99.90;;;;;;5005774;28;20409;-85
2022/08/15 07:15:26;;;;;;;14.20;12.63;;;23.50;99.90;;;;;;4993888;28;20196;-85
2022/08/15 07:17:58;;;;;;;14.88;12.60;;;23.50;99.90;;;;;;5018190;28;20505;-85
2022/08/15 07:20:24;;;;;;;13.88;12.50;;;23.40;99.90;;;;;;5000012;28;20571;-85
2022/08/15 07:22:51;;;;;;;15.82;12.77;;;23.40;99.90;;;;;;5035304;28;20035;-85
2022/08/15 07:25:19;;;;;;;14.60;13.10;;;23.30;99.90;;;;;;5001159;28;20044;-85
2022/08/15 07:28:19;;;;;;;13.98;12.60;;;23.20;99.90;;;;;;4998009;28;20132;-86
2022/08/15 07:30:59;;;;;;;13.57;12.30;;;23.20;99.90;;;;;;4987479;28;20136;-85
2022/08/15 07:33:44;;;;;;;14.43;12.20;;;23.20;99.90;;;;;;5024576;28;20540;-85
2022/08/15 07:36:16;;;;;;;;;;;23.20;99.90;;;;;;5018550;28;20489;-86
2022/08/15 07:38:42;;;;;;;14.02;12.55;;;23.30;99.90;;;;;;5032665;28;20332;-84
2022/08/15 07:41:38;;;;;;;16.33;12.40;;;23.40;99.90;;;;;;5004942;28;20048;-85
2022/08/15 07:44:27;;;;;;;14.55;12.60;;;23.40;99.90;;;;;;5016615;28;20100;-85
2022/08/15 07:46:59;;;;;;;14.57;13.23;;;23.50;99.90;;;;;;5013454;28;20038;-84
2022/08/15 07:49:29;;;;;;;14.43;12.98;;;23.50;99.90;;;;;;5017367;28;20049;-85
2022/08/15 07:52:05;;;;;;;13.88;12.48;;;23.70;99.90;;;;;;5012119;28;20037;-86
2022/08/15 07:54:51;;;;;;;13.27;11.88;;;23.80;99.90;;;;;;5032128;28;20072;-85
2022/08/15 07:57:33;;;;;;;13.98;12.20;;;24.00;99.90;;;;;;5005172;28;20053;-85
2022/08/15 08:00:13;;;;;;;13.30;11.90;;;24.30;98.90;;;;;;4999347;28;20042;-86
2022/08/15 08:03:02;;;;;;;13.23;11.90;;;24.40;26.60;;;;;;5009034;28;20050;-85
2022/08/15 08:05:36;;;;;;;12.23;10.95;;;24.70;52.40;;;;;;4989333;28;20070;-86
2022/08/15 08:08:05;;;;;;;11.95;10.18;;;25.00;1.00;;;;;;5027012;28;20134;-86
2022/08/15 08:10:52;;;;;;;18.35;10.60;;;25.10;1.00;;;;;;4987119;28;20153;-86
2022/08/15 08:13:43;;;;;;;12.40;10.25;;;25.30;99.90;;;;;;5024499;28;20324;-86
2022/08/15 08:16:24;;;;;;;11.30;9.70;;;25.40;99.90;;;;;;5030166;28;20568;-84
2022/08/15 08:18:53;;;;;;;10.90;9.82;;;25.60;99.90;;;;;;5015624;28;20046;-86
2022/08/15 08:21:29;;;;;;;11.10;9.43;;;25.70;99.90;;;;;;4998394;28;20041;-85
2022/08/15 08:24:04;;;;;;;11.23;9.25;;;25.80;99.90;;;;;;4987371;28;20481;-85
2022/08/15 08:26:38;;;;;;;10.20;9.15;;;25.90;99.90;;;;;;5013797;28;20038;-85
2022/08/15 08:29:39;;;;;;;9.65;8.63;;;26.00;99.90;;;;;;5009729;28;20049;-85
2022/08/15 08:32:17;;;;;;;9.85;8.88;;;26.10;99.90;;;;;;5027190;28;20423;-86
2022/08/15 08:35:04;;;;;;;9.98;8.73;;;26.20;99.90;;;;;;5023815;28;20172;-85
2022/08/15 08:37:34;;;;;;;10.18;8.18;;;25.80;99.90;;;;;;5035666;28;20099;-85
2022/08/15 08:43:49;;;;;;;9.35;8.50;;;26.10;99.90;;;;;;5027782;28;20101;-84
2022/08/15 08:46:32;;;;;;;9.15;8.20;;;26.40;99.90;;;;;;5020926;28;20373;-85
2022/08/15 08:49:25;;;;;;;9.32;7.75;;;26.50;99.90;;;;;;5008435;28;20044;-86
2022/08/15 08:52:08;;;;;;;8.68;7.70;;;27.00;99.90;;;;;;5015427;28;20052;-85
2022/08/15 08:54:45;;;;;;;9.10;8.05;;;27.30;48.60;;;;;;5003223;28;20421;-85
2022/08/15 08:57:16;;;;;;;8.75;7.85;;;27.10;1.00;;;;;;5007679;28;20485;-85
2022/08/15 09:00:04;;;;;;;8.73;7.82;;;27.00;1.00;;;;;;5005965;28;20083;-85
2022/08/15 09:02:59;;;;;;;8.98;7.22;;;27.40;1.00;;;;;;4989864;28;20420;-86
2022/08/15 09:05:49;;;;;;;;;;;27.60;1.00;;;;;;4983537;28;20042;-85
2022/08/15 09:08:32;;;;;;;10.35;7.63;;;27.50;1.00;;;;;;5025734;28;19917;-84
2022/08/15 09:11:12;;;;;;;8.60;7.47;;;27.60;1.00;;;;;;4993127;28;20369;-85
2022/08/15 09:13:43;;;;;;;8.25;7.25;;;27.20;1.00;;;;;;5011106;28;20049;-85
2022/08/15 09:16:30;;;;;;;10.40;7.07;;;27.10;1.00;;;;;;5031689;28;20437;-85
2022/08/15 09:19:20;;;;;;;8.02;7.00;;;27.00;1.00;;;;;;5031085;28;20056;-85
2022/08/15 09:21:47;;;;;;;7.88;7.07;;;27.30;1.00;;;;;;5028617;28;20115;-85
2022/08/15 09:24:14;;;;;;;11.10;8.05;;;27.40;1.00;;;;;;5029916;28;20094;-85
2022/08/15 09:26:49;;;;;;;8.93;7.85;;;27.30;1.00;;;;;;5010493;28;20080;-84
2022/08/15 09:29:24;;;;;;;;;;;27.30;1.00;;;;;;4991579;28;20050;-85
2022/08/15 09:32:27;;;;;;;8.43;7.00;;;27.40;1.00;;;;;;5025837;28;19917;-85
2022/08/15 09:35:17;;;;;;;9.95;7.57;;;28.00;1.00;;;;;;4977338;28;20699;-86
2022/08/15 09:38:24;;;;;;;9.15;7.55;;;28.10;99.90;;;;;;5019678;28;20046;-84
2022/08/15 09:41:20;;;;;;;9.60;7.78;;;28.70;99.90;;;;;;4994062;28;20567;-86
2022/08/15 09:44:08;;;;;;;8.68;7.30;;;28.80;99.90;;;;;;5020585;28;20065;-84
2022/08/15 09:47:02;;;;;;;8.27;6.97;;;29.00;99.90;;;;;;5033030;28;20061;-85
2022/08/15 09:49:48;;;;;;;8.98;6.93;;;29.40;99.90;;;;;;5023966;28;20523;-84
2022/08/15 09:52:35;;;;;;;9.18;7.13;;;29.20;99.90;;;;;;5010770;28;20109;-85
2022/08/15 09:55:46;;;;;;;7.15;6.45;;;29.50;99.90;;;;;;4993712;28;20430;-85
2022/08/15 09:58:20;;;;;;;7.45;6.50;;;29.40;99.90;;;;;;5003425;28;20103;-85
2022/08/15 10:00:58;;;;;;;10.30;6.80;;;28.80;99.90;;;;;;5028194;28;20038;-85
2022/08/15 10:03:44;;;;;;;7.38;6.45;;;29.00;99.90;;;;;;5005560;28;20156;-85
2022/08/15 10:06:31;;;;;;;7.60;6.80;;;28.80;99.90;;;;;;5035895;28;20050;-85
2022/08/15 10:09:09;;;;;;;7.78;6.65;;;28.70;99.90;;;;;;5010411;28;20044;-85
2022/08/15 10:11:41;;;;;;;8.70;6.97;;;28.80;99.90;;;;;;4993019;28;20049;-85
2022/08/15 10:14:29;;;;;;;8.00;7.20;;;29.00;99.90;;;;;;4996897;28;20037;-85
2022/08/15 10:17:21;;;;;;;8.50;7.60;;;29.30;99.90;;;;;;4987502;28;20049;-85
2022/08/15 10:19:48;;;;;;;8.75;7.25;;;29.50;99.90;;;;;;5026581;28;20492;-84
2022/08/15 10:22:23;;;;;;;11.10;7.22;;;29.40;99.90;;;;;;5008748;28;20048;-86
2022/08/15 10:25:12;;;;;;;8.82;6.90;;;29.30;99.90;;;;;;5009534;28;20484;-85
2022/08/15 10:27:58;;;;;;;11.75;7.22;;;29.50;99.90;;;;;;5005089;28;20049;-85
2022/08/15 10:30:30;;;;;;;7.72;6.78;;;29.70;99.90;;;;;;5010588;28;21135;-85
2022/08/15 10:32:58;;;;;;;9.27;7.20;;;30.10;99.90;;;;;;5003867;28;20116;-85
2022/08/15 10:35:45;;;;;;;9.48;7.80;;;30.50;99.90;;;;;;5025946;28;20095;-86
2022/08/15 10:38:14;;;;;;;9.68;6.95;;;30.20;99.90;;;;;;4992506;28;20052;-84
2022/08/15 10:40:54;;;;;;;9.02;8.13;;;30.10;99.90;;;;;;5010563;28;20347;-86
2022/08/15 10:43:32;;;;;;;10.30;8.57;;;30.10;99.90;;;;;;5026556;28;20041;-84
2022/08/15 10:46:18;;;;;;;10.57;8.25;;;30.00;99.90;;;;;;5030259;28;20034;-85
2022/08/15 10:49:04;;;;;;;9.40;7.72;;;30.00;99.90;;;;;;5006155;28;20498;-85
2022/08/15 10:52:19;;;;;;;8.40;7.60;;;30.10;99.90;;;;;;4997724;28;20045;-85
2022/08/15 10:54:48;;;;;;;9.70;8.38;;;30.40;99.90;;;;;;4997139;28;20041;-85
2022/08/15 10:57:21;;;;;;;9.45;8.25;;;29.90;99.90;;;;;;5023803;28;20040;-84
2022/08/15 10:59:50;;;;;;;10.98;9.93;;;29.80;99.90;;;;;;4991985;28;20402;-85
2022/08/15 11:02:27;;;;;;;11.13;9.50;;;29.70;99.90;;;;;;5001884;28;20081;-85
2022/08/15 11:05:05;;;;;;;11.75;9.73;;;29.30;99.90;;;;;;5014928;28;20132;-85
2022/08/15 11:07:36;;;;;;;12.40;10.63;;;29.20;99.90;;;;;;5029094;28;20046;-86
2022/08/15 11:10:10;;;;;;;11.93;10.73;;;29.00;99.90;;;;;;4988827;28;20187;-85
2022/08/15 11:12:42;;;;;;;14.20;10.38;;;28.80;99.90;;;;;;5012156;28;20069;-85
2022/08/15 11:15:33;;;;;;;11.35;10.15;;;28.60;99.90;;;;;;5014550;28;20132;-85
2022/08/15 11:18:00;;;;;;;12.25;11.02;;;28.30;99.90;;;;;;4998908;28;20532;-85
2022/08/15 11:20:41;;;;;;;16.13;10.23;;;28.00;99.90;;;;;;4999677;28;20650;-85
2022/08/15 11:23:07;;;;;;;12.40;10.88;;;28.00;99.90;;;;;;4995767;28;20038;-84
2022/08/15 11:25:37;;;;;;;12.32;11.10;;;27.70;99.90;;;;;;5031218;28;20417;-85
2022/08/15 11:28:21;;;;;;;16.23;11.68;;;27.40;99.90;;;;;;5015007;28;20042;-86
2022/08/15 11:30:47;;;;;;;12.35;11.02;;;27.20;99.90;;;;;;5013595;28;20044;-85
2022/08/15 11:33:21;;;;;;;18.08;13.25;;;27.20;1.00;;;;;;4997597;28;20527;-85
2022/08/15 11:35:48;;;;;;;19.70;13.73;;;26.80;1.00;;;;;;4999687;28;20041;-85
2022/08/15 11:38:16;;;;;;;18.63;13.88;;;26.50;99.90;;;;;;5031013;28;20038;-86
2022/08/15 11:40:48;;;;;;;14.63;13.00;;;26.00;99.90;;;;;;5009140;28;20105;-84
2022/08/15 11:43:17;;;;;;;14.98;13.23;;;26.10;99.90;;;;;;5001362;28;20168;-85
2022/08/15 11:45:48;;;;;;;14.43;13.13;;;25.80;1.00;;;;;;5018162;28;20050;-85
2022/08/15 11:48:26;;;;;;;17.08;13.95;;;25.90;1.00;;;;;;5036464;28;20056;-85
2022/08/15 11:51:21;;;;;;;16.15;14.40;;;25.90;99.90;;;;;;5046447;28;20044;-84
2022/08/15 11:54:12;;;;;;;13.57;12.07;;;25.80;1.00;;;;;;5044854;28;20048;-84
2022/08/15 11:56:47;;;;;;;12.85;11.52;;;26.00;99.90;;;;;;5027583;28;20073;-84
2022/08/15 11:59:35;;;;;;;11.30;10.25;;;25.90;1.00;;;;;;5019201;28;20279;-85
2022/08/15 12:02:29;;;;;;;12.13;10.85;;;25.90;98.60;;;;;;5020757;28;20347;-85
2022/08/15 12:04:55;;;;;;;13.32;9.93;;;25.70;47.10;;;;;;5008336;28;20042;-85
2022/08/15 12:07:28;;;;;;;13.45;9.77;;;25.80;1.00;;;;;;5036083;28;20037;-83
2022/08/15 12:10:01;;;;;;;10.65;9.65;;;25.90;66.80;;;;;;5024210;28;20292;-84
2022/08/15 12:12:38;;;;;;;10.63;9.63;;;25.90;75.50;;;;;;4999580;28;20041;-84
2022/08/15 12:15:13;;;;;;;9.90;8.52;;;25.80;99.90;;;;;;5008676;28;20046;-85
2022/08/15 12:17:54;;;;;;;11.93;8.85;;;25.90;1.00;;;;;;5010921;28;20044;-85
2022/08/15 12:20:47;;;;;;;10.02;9.02;;;25.80;1.00;;;;;;5041470;28;20041;-85
2022/08/15 12:23:25;;;;;;;9.52;8.50;;;26.00;1.00;;;;;;5024997;28;20393;-85
2022/08/15 12:26:16;;;;;;;10.27;8.63;;;25.80;1.00;;;;;;5041761;28;20042;-84
2022/08/15 12:28:43;;;;;;;10.05;9.00;;;26.10;99.90;;;;;;5022893;28;20617;-84
2022/08/15 12:31:14;;;;;;;11.20;9.27;;;26.00;84.10;;;;;;4999903;28;20044;-84
2022/08/15 12:33:41;;;;;;;11.13;8.32;;;26.20;99.90;;;;;;5004061;28;20141;-84
2022/08/15 12:36:11;;;;;;;10.13;8.43;;;26.50;1.00;;;;;;4993207;28;20127;-85
2022/08/15 12:38:37;;;;;;;9.23;8.05;;;26.60;1.00;;;;;;5002098;28;20050;-86
2022/08/15 12:41:03;;;;;;;8.90;8.00;;;26.90;99.90;;;;;;5023823;28;20118;-85
2022/08/15 12:43:30;;;;;;;10.68;7.97;;;27.10;99.90;;;;;;4993134;28;20332;-84
2022/08/15 12:45:55;;;;;;;9.82;7.72;;;27.30;99.90;;;;;;5001302;28;20041;-85
2022/08/15 12:48:27;;;;;;;10.02;8.50;;;27.40;99.90;;;;;;5019546;28;20119;-85
2022/08/15 12:50:53;;;;;;;9.18;8.15;;;27.30;99.90;;;;;;5024852;28;20053;-85
2022/08/15 12:53:19;;;;;;;10.40;9.25;;;27.40;99.90;;;;;;5020407;28;20077;-85
2022/08/15 12:55:47;;;;;;;9.38;8.02;;;27.40;99.90;;;;;;5018882;28;20041;-85
2022/08/15 12:58:17;;;;;;;11.23;9.20;;;27.90;99.90;;;;;;5051985;28;20030;-84
2022/08/15 13:00:47;;;;;;;9.95;9.00;;;28.00;99.90;;;;;;4998016;28;20455;-85
2022/08/15 13:03:23;;;;;;;10.13;8.88;;;28.20;99.90;;;;;;5003233;28;20449;-85
2022/08/15 13:06:01;;;;;;;9.30;8.40;;;28.00;99.90;;;;;;5019705;28;20041;-86
2022/08/15 13:08:27;;;;;;;9.70;8.48;;;28.60;99.90;;;;;;5032786;28;20034;-84
2022/08/15 13:10:56;;;;;;;8.93;8.13;;;28.30;1.00;;;;;;5032954;28;20057;-85
2022/08/15 13:13:21;;;;;;;9.35;8.50;;;28.60;26.20;;;;;;5009256;28;20045;-85
2022/08/15 13:15:48;;;;;;;9.35;8.43;;;28.50;1.00;;;;;;5011673;28;20077;-85
2022/08/15 13:18:25;;;;;;;9.40;8.55;;;28.40;1.00;;;;;;5006201;28;20520;-84
2022/08/15 13:23:39;;;;;;;12.02;10.35;;;28.80;31.20;;;;;;5011941;28;20073;-85